createdAt,value
2019-03-21T00:01:56.080Z,4.37
2019-03-21T00:04:24.686Z,5.90
2019-03-21T00:06:53.291Z,5.03
2019-03-21T00:09:21.906Z,4.67
2019-03-21T00:12:04.383Z,4.53
2019-03-21T00:14:41.194Z,4.47
2019-03-21T00:17:10.106Z,5.30
2019-03-21T00:19:38.735Z,4.57
2019-03-21T00:22:07.815Z,4.70
2019-03-21T00:24:36.950Z,5.23
2019-03-21T00:27:05.846Z,4.40
2019-03-21T00:29:34.949Z,5.33
2019-03-21T00:32:04.135Z,4.93
2019-03-21T00:34:33.006Z,4.70
2019-03-21T00:37:02.418Z,4.90
2019-03-21T00:39:33.008Z,5.23
2019-03-21T00:42:02.234Z,4.97
2019-03-21T00:44:31.834Z,4.57
2019-03-21T00:47:01.081Z,4.47
2019-03-21T00:49:30.150Z,4.67
2019-03-21T00:51:59.029Z,5.13
2019-03-21T00:54:28.150Z,5.50
2019-03-21T00:56:57.580Z,4.70
2019-03-21T00:59:26.686Z,4.67
2019-03-21T01:01:55.655Z,5.03
2019-03-21T01:04:26.309Z,5.00
2019-03-21T01:06:55.662Z,5.00
2019-03-21T01:09:25.295Z,5.03
2019-03-21T01:11:54.331Z,4.67
2019-03-21T01:14:29.670Z,4.77
2019-03-21T01:16:54.531Z,5.53
2019-03-21T01:19:23.964Z,5.07
2019-03-21T01:21:53.293Z,4.40
2019-03-21T01:24:22.602Z,4.80
2019-03-21T01:26:51.342Z,4.50
2019-03-21T01:29:20.372Z,4.23
2019-03-21T01:31:48.977Z,4.83
2019-03-21T01:34:18.523Z,5.13
2019-03-21T01:36:47.360Z,5.00
2019-03-21T01:39:16.788Z,4.43
2019-03-21T01:41:45.841Z,4.67
2019-03-21T01:44:14.875Z,4.63
2019-03-21T01:46:43.682Z,4.83
2019-03-21T01:49:12.739Z,4.33
2019-03-21T01:51:41.763Z,4.83
2019-03-21T01:54:10.374Z,4.50
2019-03-21T01:56:39.031Z,4.70
2019-03-21T01:59:07.693Z,4.77
2019-03-21T02:01:36.415Z,4.67
2019-03-21T02:04:05.098Z,4.70
2019-03-21T02:06:34.151Z,4.50
2019-03-21T02:09:03.654Z,4.30
2019-03-21T02:11:32.291Z,4.03
2019-03-21T02:14:01.142Z,4.23
2019-03-21T02:16:30.083Z,5.00
2019-03-21T02:18:58.667Z,4.57
2019-03-21T02:21:27.542Z,4.60
2019-03-21T02:23:57.159Z,3.90
2019-03-21T02:26:26.226Z,3.83
2019-03-21T02:28:55.801Z,4.40
2019-03-21T02:31:24.868Z,4.87
2019-03-21T02:33:53.640Z,4.20
2019-03-21T02:36:22.243Z,4.17
2019-03-21T02:38:50.824Z,4.23
2019-03-21T02:41:19.413Z,4.30
2019-03-21T02:43:47.995Z,3.90
2019-03-21T02:46:16.626Z,4.87
2019-03-21T02:48:45.729Z,4.87
2019-03-21T02:51:15.317Z,3.97
2019-03-21T02:53:44.536Z,4.20
2019-03-21T02:56:14.461Z,4.40
2019-03-21T02:58:43.782Z,4.60
2019-03-21T03:01:13.194Z,3.90
2019-03-21T03:03:42.248Z,3.77
2019-03-21T03:06:11.654Z,4.20
2019-03-21T03:08:40.528Z,4.00
2019-03-21T03:11:11.075Z,4.87
2019-03-21T03:13:40.694Z,3.80
2019-03-21T03:16:09.746Z,4.10
2019-03-21T03:18:38.822Z,4.27
2019-03-21T03:21:07.597Z,4.40
2019-03-21T03:23:36.436Z,3.87
2019-03-21T03:26:05.475Z,4.40
2019-03-21T03:28:34.172Z,4.27
2019-03-21T03:31:02.934Z,4.10
2019-03-21T03:33:31.608Z,4.33
2019-03-21T03:36:00.988Z,4.67
2019-03-21T03:38:30.115Z,4.03
2019-03-21T03:40:59.843Z,4.23
2019-03-21T03:43:28.888Z,4.20
2019-03-21T03:45:57.832Z,3.50
2019-03-21T03:48:27.124Z,4.20
2019-03-21T03:50:56.685Z,4.00
2019-03-21T03:53:25.606Z,3.90
2019-03-21T03:55:55.191Z,3.80
2019-03-21T03:58:24.608Z,4.10
2019-03-21T04:00:53.669Z,4.57
2019-03-21T04:03:23.141Z,3.70
2019-03-21T04:05:51.898Z,4.00
2019-03-21T04:08:20.927Z,4.17
2019-03-21T04:10:50.247Z,4.47
2019-03-21T04:13:19.199Z,3.43
2019-03-21T04:15:52.970Z,3.73
2019-03-21T04:18:19.402Z,4.50
2019-03-21T04:20:48.688Z,3.97
2019-03-21T04:23:18.118Z,3.77
2019-03-21T04:25:48.856Z,3.80
2019-03-21T04:28:18.276Z,3.03
2019-03-21T04:30:48.289Z,3.63
2019-03-21T04:33:17.716Z,3.90
2019-03-21T04:35:47.066Z,5.03
2019-03-21T04:38:16.362Z,3.50
2019-03-21T04:40:44.971Z,3.63
2019-03-21T04:43:13.635Z,3.83
2019-03-21T04:45:42.291Z,3.80
2019-03-21T04:48:10.896Z,3.90
2019-03-21T04:50:40.127Z,4.20
2019-03-21T04:53:09.563Z,4.43
2019-03-21T04:55:39.328Z,4.03
2019-03-21T04:58:08.603Z,3.60
2019-03-21T05:00:37.894Z,4.40
2019-03-21T05:03:07.200Z,3.90
2019-03-21T05:05:36.477Z,3.93
2019-03-21T05:08:05.855Z,3.33
2019-03-21T05:10:34.950Z,4.43
2019-03-21T05:13:03.989Z,4.07
2019-03-21T05:15:34.950Z,4.40
2019-03-21T05:18:05.606Z,3.77
2019-03-21T05:20:34.608Z,3.80
2019-03-21T05:23:03.652Z,3.80
2019-03-21T05:25:32.260Z,4.00
2019-03-21T05:28:01.474Z,4.43
2019-03-21T05:30:32.131Z,4.07
2019-03-21T05:33:01.143Z,4.33
2019-03-21T05:35:30.158Z,4.30
2019-03-21T05:37:59.559Z,3.90
2019-03-21T05:40:28.615Z,3.80
2019-03-21T05:43:05.103Z,6.00
2019-03-21T05:45:34.515Z,4.33
2019-03-21T05:48:03.658Z,4.13
2019-03-21T05:50:32.252Z,4.20
2019-03-21T05:53:01.038Z,3.80
2019-03-21T05:55:29.947Z,4.20
2019-03-21T05:57:58.887Z,4.00
2019-03-21T06:00:32.235Z,3.80
2019-03-21T06:03:01.559Z,4.30
2019-03-21T06:05:30.694Z,4.20
2019-03-21T06:08:04.503Z,4.57
2019-03-21T06:10:33.366Z,4.47
2019-03-21T06:13:02.447Z,4.40
2019-03-21T06:15:31.994Z,4.20
2019-03-21T06:18:17.098Z,3.90
2019-03-21T06:21:07.430Z,3.87
2019-03-21T06:23:55.036Z,3.70
2019-03-21T06:26:42.482Z,4.33
2019-03-21T06:29:11.218Z,4.33
2019-03-21T06:31:40.267Z,5.50
2019-03-21T06:34:09.642Z,4.87
2019-03-21T06:36:38.763Z,4.00
2019-03-21T06:39:08.435Z,4.20
2019-03-21T06:41:38.137Z,4.30
2019-03-21T06:44:06.927Z,4.23
2019-03-21T06:46:35.821Z,4.50
2019-03-21T06:49:04.949Z,4.70
2019-03-21T06:51:33.763Z,4.43
2019-03-21T06:54:02.569Z,4.27
2019-03-21T06:56:31.381Z,4.03
2019-03-21T06:59:00.160Z,3.93
2019-03-21T07:01:28.755Z,4.33
2019-03-21T07:04:06.573Z,4.10
2019-03-21T07:06:27.682Z,4.20
2019-03-21T07:08:56.642Z,4.47
2019-03-21T07:11:25.965Z,4.23
2019-03-21T07:13:55.823Z,4.87
2019-03-21T07:16:24.930Z,9.53
2019-03-21T07:18:53.957Z,4.90
2019-03-21T07:21:22.615Z,4.30
2019-03-21T07:23:51.623Z,4.60
2019-03-21T07:26:20.661Z,4.20
2019-03-21T07:28:49.234Z,4.37
2019-03-21T07:31:17.820Z,4.60
2019-03-21T07:33:46.400Z,4.40
2019-03-21T07:36:15.418Z,4.90
2019-03-21T07:38:43.999Z,4.67
2019-03-21T07:41:12.582Z,4.80
2019-03-21T07:43:41.591Z,4.40
2019-03-21T07:46:10.815Z,4.63
2019-03-21T07:48:40.139Z,4.70
2019-03-21T07:51:09.744Z,4.73
2019-03-21T07:53:39.571Z,4.47
2019-03-21T07:56:08.683Z,4.60
2019-03-21T07:58:37.532Z,5.17
2019-03-21T08:01:06.292Z,4.50
2019-03-21T08:03:34.884Z,4.53
2019-03-21T08:06:03.509Z,5.13
2019-03-21T08:08:32.118Z,5.00
2019-03-21T08:11:00.715Z,5.03
2019-03-21T08:13:29.483Z,5.20
2019-03-21T08:15:59.499Z,5.83
2019-03-21T08:18:28.744Z,5.00
2019-03-21T08:21:00.031Z,4.93
2019-03-21T08:23:27.785Z,5.63
2019-03-21T08:25:56.534Z,5.23
2019-03-21T08:28:25.140Z,4.90
2019-03-21T08:31:18.364Z,5.13
2019-03-21T08:33:47.050Z,5.63
2019-03-21T08:36:16.252Z,5.53
2019-03-21T08:38:45.164Z,5.53
2019-03-21T08:41:13.870Z,5.30
2019-03-21T08:43:42.526Z,5.00
2019-03-21T08:46:11.115Z,5.43
2019-03-21T08:48:39.795Z,6.03
2019-03-21T08:51:08.978Z,5.87
2019-03-21T08:53:37.774Z,4.87
2019-03-21T08:56:06.581Z,5.37
2019-03-21T08:58:35.347Z,5.63
2019-03-21T09:01:04.049Z,5.10
2019-03-21T09:03:32.651Z,5.37
2019-03-21T09:06:01.270Z,5.33
2019-03-21T09:08:29.872Z,5.90
2019-03-21T09:10:58.471Z,5.13
2019-03-21T09:13:27.106Z,5.50
2019-03-21T09:15:55.705Z,5.47
2019-03-21T09:18:24.291Z,5.07
2019-03-21T09:20:52.868Z,5.77
2019-03-21T09:23:21.451Z,6.27
2019-03-21T09:25:51.326Z,5.33
2019-03-21T09:28:20.631Z,5.20
2019-03-21T09:30:50.610Z,5.43
2019-03-21T09:33:19.553Z,5.70
2019-03-21T09:35:48.151Z,6.00
2019-03-21T09:38:16.857Z,6.50
2019-03-21T09:40:45.599Z,5.33
2019-03-21T09:43:14.198Z,5.93
2019-03-21T09:45:42.794Z,6.13
2019-03-21T09:48:11.464Z,5.70
2019-03-21T09:50:40.071Z,5.87
2019-03-21T09:53:08.761Z,5.70
2019-03-21T09:55:37.347Z,5.40
2019-03-21T09:58:06.010Z,5.73
2019-03-21T10:00:35.480Z,5.37
2019-03-21T10:03:04.647Z,5.30
2019-03-21T10:05:33.242Z,6.20
2019-03-21T10:08:02.041Z,5.47
2019-03-21T10:10:31.727Z,6.00
2019-03-21T10:13:00.551Z,5.60
2019-03-21T10:15:29.288Z,6.33
2019-03-21T10:17:57.992Z,5.70
2019-03-21T10:20:28.315Z,6.47
2019-03-21T10:22:56.908Z,6.53
2019-03-21T10:25:26.812Z,6.03
2019-03-21T10:27:55.825Z,6.13
2019-03-21T10:30:34.661Z,6.07
2019-03-21T10:33:03.303Z,5.80
2019-03-21T10:35:32.771Z,6.40
2019-03-21T10:38:01.692Z,6.17
2019-03-21T10:40:30.331Z,7.00
2019-03-21T10:42:58.939Z,6.60
2019-03-21T10:45:27.578Z,6.40
2019-03-21T10:47:56.170Z,6.73
2019-03-21T10:50:28.949Z,6.30
2019-03-21T10:52:57.639Z,6.30
2019-03-21T10:55:26.243Z,6.63
2019-03-21T10:57:54.861Z,6.87
2019-03-21T11:00:23.577Z,7.53
2019-03-21T11:02:52.218Z,6.47
2019-03-21T11:05:23.118Z,6.90
2019-03-21T11:07:52.717Z,6.90
2019-03-21T11:10:21.427Z,7.17
2019-03-21T11:12:50.164Z,7.23
2019-03-21T11:15:18.838Z,7.00
2019-03-21T11:17:47.556Z,6.47
2019-03-21T11:20:20.963Z,7.97
2019-03-21T11:22:49.559Z,7.27
2019-03-21T11:25:18.206Z,6.70
2019-03-21T11:27:46.810Z,7.27
2019-03-21T11:30:17.419Z,7.43
2019-03-21T11:32:46.483Z,7.23
2019-03-21T11:35:15.678Z,7.47
2019-03-21T11:37:45.271Z,7.90
2019-03-21T11:40:14.576Z,7.30
2019-03-21T11:42:43.945Z,7.93
2019-03-21T11:45:15.099Z,7.60
2019-03-21T11:47:43.874Z,7.47
2019-03-21T11:50:13.188Z,7.50
2019-03-21T11:52:43.983Z,7.83
2019-03-21T11:55:13.378Z,7.03
2019-03-21T11:57:42.477Z,7.60
2019-03-21T12:00:14.456Z,7.90
2019-03-21T12:02:43.154Z,8.10
2019-03-21T12:05:11.914Z,7.73
2019-03-21T12:07:40.985Z,7.60
2019-03-21T12:10:09.629Z,7.33
2019-03-21T12:12:38.657Z,8.33
2019-03-21T12:15:07.885Z,7.60
2019-03-21T12:17:36.923Z,8.10
2019-03-21T12:20:07.275Z,7.77
2019-03-21T12:22:36.302Z,8.27
2019-03-21T12:25:05.995Z,6.93
2019-03-21T12:27:34.987Z,7.43
2019-03-21T12:30:04.683Z,7.93
2019-03-21T12:32:33.372Z,8.03
2019-03-21T12:35:02.057Z,7.10
2019-03-21T12:37:30.774Z,8.30
2019-03-21T12:39:59.678Z,8.57
2019-03-21T12:42:28.896Z,8.17
2019-03-21T12:44:57.925Z,8.40
2019-03-21T12:47:31.114Z,7.77
2019-03-21T12:49:56.928Z,7.70
2019-03-21T12:52:25.615Z,8.60
2019-03-21T12:54:54.226Z,8.90
2019-03-21T12:57:23.003Z,8.80
2019-03-21T12:59:51.950Z,7.80
2019-03-21T13:02:32.399Z,8.03
2019-03-21T13:04:51.433Z,8.43
2019-03-21T13:07:20.618Z,7.80
2019-03-21T13:09:50.010Z,8.20
2019-03-21T13:12:19.067Z,7.37
2019-03-21T13:14:47.821Z,8.03
2019-03-21T13:17:16.466Z,7.27
2019-03-21T13:19:45.183Z,9.27
2019-03-21T13:22:13.798Z,7.53
2019-03-21T13:24:42.395Z,8.30
2019-03-21T13:27:10.980Z,8.33
2019-03-21T13:29:39.573Z,7.97
2019-03-21T13:32:08.244Z,6.87
2019-03-21T13:34:36.823Z,8.57
2019-03-21T13:37:05.787Z,7.80
2019-03-21T13:39:34.834Z,8.37
2019-03-21T13:42:03.529Z,8.03
2019-03-21T13:44:32.490Z,7.77
2019-03-21T13:47:01.543Z,8.47
2019-03-21T13:49:30.177Z,7.93
2019-03-21T13:51:58.770Z,8.50
2019-03-21T13:54:28.007Z,8.50
2019-03-21T13:56:57.064Z,8.60
2019-03-21T13:59:26.107Z,8.40
2019-03-21T14:01:55.198Z,8.20
2019-03-21T14:04:23.987Z,8.70
2019-03-21T14:06:52.629Z,7.70
2019-03-21T14:09:21.342Z,8.40
2019-03-21T14:11:49.942Z,8.43
2019-03-21T14:14:18.537Z,8.63
2019-03-21T14:16:47.164Z,8.30
2019-03-21T14:19:16.163Z,8.60
2019-03-21T14:21:45.760Z,8.57
2019-03-21T14:24:15.187Z,8.93
2019-03-21T14:26:44.606Z,8.73
2019-03-21T14:29:13.663Z,8.40
2019-03-21T14:31:42.709Z,8.60
2019-03-21T14:34:11.730Z,8.23
2019-03-21T14:36:40.741Z,8.80
2019-03-21T14:39:09.801Z,8.03
2019-03-21T14:41:39.182Z,8.27
2019-03-21T14:44:08.227Z,8.50
2019-03-21T14:46:36.879Z,8.17
2019-03-21T14:49:05.487Z,8.83
2019-03-21T14:51:34.416Z,8.80
2019-03-21T14:54:03.450Z,7.93
2019-03-21T14:56:32.390Z,8.67
2019-03-21T14:59:01.991Z,9.37
2019-03-21T15:01:31.420Z,8.43
2019-03-21T15:04:00.659Z,7.50
2019-03-21T15:06:29.286Z,7.70
2019-03-21T15:08:57.887Z,8.50
2019-03-21T15:11:26.584Z,8.53
2019-03-21T15:13:55.582Z,8.83
2019-03-21T15:16:24.663Z,8.50
2019-03-21T15:18:53.556Z,8.53
2019-03-21T15:21:22.873Z,8.10
2019-03-21T15:23:59.273Z,8.27
2019-03-21T15:26:22.895Z,8.77
2019-03-21T15:28:52.515Z,9.13
2019-03-21T15:31:21.842Z,8.97
2019-03-21T15:33:50.754Z,8.07
2019-03-21T15:36:19.355Z,7.87
2019-03-21T15:38:48.339Z,8.60
2019-03-21T15:41:17.298Z,8.37
2019-03-21T15:43:46.885Z,9.13
2019-03-21T15:46:16.218Z,8.40
2019-03-21T15:48:45.160Z,7.90
2019-03-21T15:51:14.571Z,8.40
2019-03-21T15:53:53.115Z,8.87
2019-03-21T15:56:13.833Z,8.70
2019-03-21T15:58:42.886Z,8.90
2019-03-21T16:01:11.863Z,8.17
2019-03-21T16:03:40.934Z,8.73
2019-03-21T16:06:09.942Z,7.90
2019-03-21T16:08:39.352Z,8.47
2019-03-21T16:11:08.117Z,8.97
2019-03-21T16:13:37.407Z,8.37
2019-03-21T16:16:06.504Z,9.27
2019-03-21T16:18:35.502Z,9.30
2019-03-21T16:21:06.071Z,8.87
2019-03-21T16:23:34.799Z,8.90
2019-03-21T16:26:03.535Z,8.27
2019-03-21T16:28:32.243Z,8.60
2019-03-21T16:31:01.589Z,8.57
2019-03-21T16:33:30.270Z,8.27
2019-03-21T16:35:58.878Z,8.27
2019-03-21T16:38:27.586Z,8.83
2019-03-21T16:40:57.178Z,8.80
2019-03-21T16:43:25.782Z,8.57
2019-03-21T16:45:54.768Z,8.93
2019-03-21T16:48:23.025Z,8.00
2019-03-21T16:50:51.613Z,8.57
2019-03-21T16:53:20.224Z,9.13
2019-03-21T16:55:48.966Z,8.30
2019-03-21T16:58:17.561Z,8.30
2019-03-21T17:00:46.283Z,8.20
2019-03-21T17:03:14.886Z,9.27
2019-03-21T17:05:43.939Z,8.07
2019-03-21T17:08:13.179Z,8.80
2019-03-21T17:10:41.956Z,9.23
2019-03-21T17:13:10.705Z,8.60
2019-03-21T17:15:39.292Z,8.53
2019-03-21T17:18:08.173Z,8.23
2019-03-21T17:20:36.764Z,8.53
2019-03-21T17:23:05.497Z,7.97
2019-03-21T17:25:34.099Z,8.33
2019-03-21T17:28:02.757Z,8.73
2019-03-21T17:30:31.442Z,8.60
2019-03-21T17:33:00.133Z,8.50
2019-03-21T17:35:28.754Z,7.57
2019-03-21T17:37:57.735Z,8.27
2019-03-21T17:40:26.393Z,8.00
2019-03-21T17:42:55.003Z,8.43
2019-03-21T17:45:23.630Z,8.10
2019-03-21T17:47:52.367Z,9.03
2019-03-21T17:50:21.015Z,8.63
2019-03-21T17:52:49.730Z,8.73
2019-03-21T17:55:18.601Z,8.77
2019-03-21T17:57:47.181Z,7.63
2019-03-21T18:00:16.714Z,8.43
2019-03-21T18:02:45.551Z,9.23
2019-03-21T18:05:14.352Z,8.37
2019-03-21T18:07:42.946Z,8.17
2019-03-21T18:10:17.427Z,7.67
2019-03-21T18:12:46.354Z,8.17
2019-03-21T18:15:15.084Z,9.10
2019-03-21T18:17:43.749Z,8.63
2019-03-21T18:20:12.642Z,8.83
2019-03-21T18:22:41.226Z,8.70
2019-03-21T18:25:11.371Z,8.77
2019-03-21T18:27:40.059Z,8.00
2019-03-21T18:30:09.078Z,8.77
2019-03-21T18:32:38.659Z,9.40
2019-03-21T18:35:07.967Z,9.30
2019-03-21T18:37:37.086Z,10.67
2019-03-21T18:40:06.185Z,10.07
2019-03-21T18:42:34.869Z,9.20
2019-03-21T18:45:04.238Z,8.33
2019-03-21T18:47:33.163Z,9.37
2019-03-21T18:50:02.555Z,9.77
2019-03-21T18:52:32.159Z,9.23
2019-03-21T18:55:06.498Z,8.37
2019-03-21T18:57:32.387Z,8.67
2019-03-21T19:00:01.469Z,8.80
2019-03-21T19:02:30.846Z,8.60
2019-03-21T19:05:00.901Z,8.00
2019-03-21T19:07:30.289Z,9.37
2019-03-21T19:09:59.559Z,11.60
2019-03-21T19:12:28.228Z,14.43
2019-03-21T19:14:57.271Z,10.90
2019-03-21T19:17:26.427Z,9.93
2019-03-21T19:19:55.824Z,9.77
2019-03-21T19:22:25.243Z,11.30
2019-03-21T19:24:54.288Z,10.37
2019-03-21T19:27:23.598Z,10.27
2019-03-21T19:29:52.541Z,10.70
2019-03-21T19:32:22.139Z,10.73
2019-03-21T19:34:51.571Z,9.90
2019-03-21T19:37:20.618Z,9.47
2019-03-21T19:39:49.338Z,9.90
2019-03-21T19:42:18.121Z,9.63
2019-03-21T19:44:46.740Z,10.00
2019-03-21T19:47:24.191Z,9.70
2019-03-21T19:49:45.596Z,10.17
2019-03-21T19:52:14.220Z,8.90
2019-03-21T19:54:42.921Z,9.33
2019-03-21T19:57:11.667Z,8.90
2019-03-21T19:59:40.818Z,9.43
2019-03-21T20:02:09.921Z,9.03
2019-03-21T20:04:39.526Z,12.00
2019-03-21T20:07:09.149Z,9.30
2019-03-21T20:09:37.793Z,11.30
2019-03-21T20:12:07.212Z,10.03
2019-03-21T20:14:35.959Z,9.33
2019-03-21T20:17:05.177Z,8.97
2019-03-21T20:19:34.687Z,9.07
2019-03-21T20:22:04.025Z,8.50
2019-03-21T20:24:32.626Z,8.47
2019-03-21T20:27:01.411Z,9.03
2019-03-21T20:29:30.038Z,9.13
2019-03-21T20:31:59.127Z,9.53
2019-03-21T20:34:27.747Z,9.83
2019-03-21T20:36:57.317Z,10.03
2019-03-21T20:39:26.458Z,9.87
2019-03-21T20:41:56.152Z,10.73
2019-03-21T20:44:25.586Z,10.37
2019-03-21T20:46:54.742Z,10.00
2019-03-21T20:49:23.701Z,9.87
2019-03-21T20:51:52.697Z,10.33
2019-03-21T20:54:22.199Z,10.80
2019-03-21T20:56:51.705Z,9.17
2019-03-21T20:59:21.134Z,11.00
2019-03-21T21:01:49.766Z,11.23
2019-03-21T21:04:18.479Z,11.07
2019-03-21T21:06:47.094Z,10.60
2019-03-21T21:09:15.697Z,10.93
2019-03-21T21:11:44.319Z,10.20
2019-03-21T21:14:12.928Z,11.23
2019-03-21T21:16:41.690Z,11.07
2019-03-21T21:19:10.667Z,11.67
2019-03-21T21:21:39.668Z,11.33
2019-03-21T21:24:08.696Z,10.60
2019-03-21T21:26:37.314Z,10.93
2019-03-21T21:29:06.351Z,11.57
2019-03-21T21:31:34.952Z,12.43
2019-03-21T21:34:04.058Z,9.93
2019-03-21T21:36:32.679Z,10.77
2019-03-21T21:39:01.279Z,12.00
2019-03-21T21:41:29.902Z,12.10
2019-03-21T21:43:58.501Z,11.23
2019-03-21T21:46:27.098Z,12.63
2019-03-21T21:48:55.744Z,11.00
2019-03-21T21:51:24.423Z,11.30
2019-03-21T21:53:53.694Z,10.90
2019-03-21T21:56:22.467Z,11.77
2019-03-21T21:58:51.083Z,11.10
2019-03-21T22:01:19.698Z,10.60
2019-03-21T22:03:48.326Z,11.50
2019-03-21T22:06:16.934Z,12.20
2019-03-21T22:08:45.664Z,11.83
2019-03-21T22:11:14.275Z,11.77
2019-03-21T22:13:43.574Z,11.20
2019-03-21T22:16:12.182Z,10.70
2019-03-21T22:18:41.255Z,11.83
2019-03-21T22:21:10.459Z,11.10
2019-03-21T22:23:39.557Z,12.93
2019-03-21T22:26:08.151Z,11.70
2019-03-21T22:28:36.792Z,11.33
2019-03-21T22:31:05.387Z,10.73
2019-03-21T22:33:33.990Z,12.03
2019-03-21T22:36:02.603Z,11.43
2019-03-21T22:38:31.190Z,11.60
2019-03-21T22:40:59.799Z,11.00
2019-03-21T22:43:28.428Z,12.00
2019-03-21T22:45:57.042Z,11.90
2019-03-21T22:48:25.643Z,11.50
2019-03-21T22:50:54.255Z,11.10
2019-03-21T22:53:22.895Z,10.50
2019-03-21T22:55:51.552Z,11.37
2019-03-21T22:58:31.217Z,10.73
2019-03-21T23:00:51.402Z,9.87
2019-03-21T23:03:20.850Z,11.70
2019-03-21T23:05:49.564Z,11.47
2019-03-21T23:08:18.165Z,13.27
2019-03-21T23:10:46.759Z,12.87
2019-03-21T23:13:15.375Z,13.90
2019-03-21T23:15:44.083Z,13.60
2019-03-21T23:18:12.814Z,13.67
2019-03-21T23:20:41.548Z,14.23
2019-03-21T23:23:10.163Z,15.07
2019-03-21T23:25:38.844Z,13.77
2019-03-21T23:28:07.514Z,14.33
2019-03-21T23:30:36.241Z,12.87
2019-03-21T23:33:04.943Z,12.80
2019-03-21T23:35:33.650Z,13.53
2019-03-21T23:38:02.256Z,14.00
2019-03-21T23:40:31.021Z,14.10
2019-03-21T23:42:59.624Z,12.83
2019-03-21T23:45:28.382Z,13.10
2019-03-21T23:47:56.974Z,13.33
2019-03-21T23:50:25.929Z,13.67
2019-03-21T23:52:54.834Z,13.47
2019-03-21T23:55:24.159Z,14.17
2019-03-21T23:57:53.483Z,11.70
